sensor_id;sensor_type;location;lat;lon;timestamp;P1;durP1;ratioP1;P2;durP2;ratioP2
545;SDS011;259;53.304;9.816;2023-04-01T00:00:30;0.80;;;0.60;;
545;SDS011;259;53.304;9.816;2023-04-01T00:02:55;0.80;;;0.60;;
545;SDS011;259;53.304;9.816;2023-04-01T00:05:21;0.90;;;0.80;;
545;SDS011;259;53.304;9.816;2023-04-01T00:07:49;0.70;;;0.50;;
545;SDS011;259;53.304;9.816;2023-04-01T00:10:15;0.60;;;0.60;;
545;SDS011;259;53.304;9.816;2023-04-01T00:12:41;0.80;;;0.50;;
545;SDS011;259;53.304;9.816;2023-04-01T00:15:08;0.90;;;0.90;;
545;SDS011;259;53.304;9.816;2023-04-01T00:17:36;1.02;;;0.63;;
545;SDS011;259;53.304;9.816;2023-04-01T00:20:03;0.90;;;0.80;;
545;SDS011;259;53.304;9.816;2023-04-01T00:22:30;0.93;;;0.73;;
545;SDS011;259;53.304;9.816;2023-04-01T00:24:56;1.03;;;0.93;;
545;SDS011;259;53.304;9.816;2023-04-01T00:27:22;0.83;;;0.70;;
545;SDS011;259;53.304;9.816;2023-04-01T00:29:47;0.80;;;0.80;;
545;SDS011;259;53.304;9.816;2023-04-01T00:32:13;0.60;;;0.60;;
545;SDS011;259;53.304;9.816;2023-04-01T00:34:40;0.70;;;0.67;;
545;SDS011;259;53.304;9.816;2023-04-01T00:37:06;1.20;;;1.10;;
545;SDS011;259;53.304;9.816;2023-04-01T00:39:33;0.70;;;0.70;;
545;SDS011;259;53.304;9.816;2023-04-01T00:42:00;0.80;;;0.63;;
545;SDS011;259;53.304;9.816;2023-04-01T00:44:29;0.70;;;0.70;;
545;SDS011;259;53.304;9.816;2023-04-01T00:46:58;1.10;;;0.67;;
545;SDS011;259;53.304;9.816;2023-04-01T00:49:26;1.10;;;0.83;;
545;SDS011;259;53.304;9.816;2023-04-01T00:51:57;0.80;;;0.77;;
545;SDS011;259;53.304;9.816;2023-04-01T00:54:27;1.07;;;0.70;;
545;SDS011;259;53.304;9.816;2023-04-01T00:56:59;0.70;;;0.60;;
545;SDS011;259;53.304;9.816;2023-04-01T00:59:30;0.70;;;0.70;;
545;SDS011;259;53.304;9.816;2023-04-01T01:02:10;0.70;;;0.70;;
545;SDS011;259;53.304;9.816;2023-04-01T01:04:38;0.80;;;0.70;;
545;SDS011;259;53.304;9.816;2023-04-01T01:20:56;0.83;;;0.77;;
545;SDS011;259;53.304;9.816;2023-04-01T01:23:36;0.60;;;0.60;;
545;SDS011;259;53.304;9.816;2023-04-01T01:29:36;0.77;;;0.60;;
545;SDS011;259;53.304;9.816;2023-04-01T01:35:33;0.90;;;0.73;;
545;SDS011;259;53.304;9.816;2023-04-01T01:38:14;0.63;;;0.63;;
545;SDS011;259;53.304;9.816;2023-04-01T01:40:44;1.43;;;0.90;;
545;SDS011;259;53.304;9.816;2023-04-01T01:43:14;0.70;;;0.70;;
545;SDS011;259;53.304;9.816;2023-04-01T01:45:49;0.80;;;0.80;;
545;SDS011;259;53.304;9.816;2023-04-01T01:48:20;0.90;;;0.90;;
545;SDS011;259;53.304;9.816;2023-04-01T01:50:47;1.13;;;1.00;;
545;SDS011;259;53.304;9.816;2023-04-01T01:53:13;0.80;;;0.70;;
545;SDS011;259;53.304;9.816;2023-04-01T01:55:40;1.00;;;0.90;;
545;SDS011;259;53.304;9.816;2023-04-01T01:58:25;0.67;;;0.60;;
545;SDS011;259;53.304;9.816;2023-04-01T02:01:10;0.70;;;0.60;;
545;SDS011;259;53.304;9.816;2023-04-01T02:03:41;0.98;;;0.55;;
545;SDS011;259;53.304;9.816;2023-04-01T02:06:09;0.77;;;0.77;;
545;SDS011;259;53.304;9.816;2023-04-01T02:08:44;0.70;;;0.70;;
545;SDS011;259;53.304;9.816;2023-04-01T02:11:15;0.97;;;0.97;;
545;SDS011;259;53.304;9.816;2023-04-01T02:13:56;0.63;;;0.60;;
545;SDS011;259;53.304;9.816;2023-04-01T02:16:29;0.70;;;0.50;;
545;SDS011;259;53.304;9.816;2023-04-01T02:19:27;1.10;;;0.70;;
545;SDS011;259;53.304;9.816;2023-04-01T02:22:05;0.90;;;0.73;;
545;SDS011;259;53.304;9.816;2023-04-01T02:24:36;0.73;;;0.67;;
545;SDS011;259;53.304;9.816;2023-04-01T02:27:05;0.70;;;0.70;;
545;SDS011;259;53.304;9.816;2023-04-01T02:29:31;0.60;;;0.50;;
545;SDS011;259;53.304;9.816;2023-04-01T02:31:57;2.10;;;0.77;;
545;SDS011;259;53.304;9.816;2023-04-01T02:34:23;0.70;;;0.60;;
545;SDS011;259;53.304;9.816;2023-04-01T02:36:50;1.60;;;0.70;;
545;SDS011;259;53.304;9.816;2023-04-01T02:39:17;0.70;;;0.70;;
545;SDS011;259;53.304;9.816;2023-04-01T02:41:43;0.80;;;0.70;;
545;SDS011;259;53.304;9.816;2023-04-01T02:44:11;0.60;;;0.60;;
545;SDS011;259;53.304;9.816;2023-04-01T02:46:39;0.60;;;0.60;;
545;SDS011;259;53.304;9.816;2023-04-01T02:49:05;0.60;;;0.50;;
545;SDS011;259;53.304;9.816;2023-04-01T02:51:32;1.73;;;0.77;;
545;SDS011;259;53.304;9.816;2023-04-01T02:53:58;0.90;;;0.90;;
545;SDS011;259;53.304;9.816;2023-04-01T02:56:24;0.83;;;0.77;;
545;SDS011;259;53.304;9.816;2023-04-01T02:58:51;0.83;;;0.80;;
545;SDS011;259;53.304;9.816;2023-04-01T03:01:17;0.90;;;0.60;;
545;SDS011;259;53.304;9.816;2023-04-01T03:03:43;0.70;;;0.70;;
545;SDS011;259;53.304;9.816;2023-04-01T03:06:10;0.70;;;0.60;;
545;SDS011;259;53.304;9.816;2023-04-01T03:08:38;0.67;;;0.60;;
545;SDS011;259;53.304;9.816;2023-04-01T03:11:04;0.70;;;0.60;;
545;SDS011;259;53.304;9.816;2023-04-01T03:13:30;0.93;;;0.80;;
545;SDS011;259;53.304;9.816;2023-04-01T03:15:57;0.80;;;0.80;;
545;SDS011;259;53.304;9.816;2023-04-01T03:18:22;0.73;;;0.73;;
545;SDS011;259;53.304;9.816;2023-04-01T03:20:48;0.97;;;0.90;;
545;SDS011;259;53.304;9.816;2023-04-01T03:23:14;0.67;;;0.50;;
545;SDS011;259;53.304;9.816;2023-04-01T03:25:42;0.60;;;0.60;;
545;SDS011;259;53.304;9.816;2023-04-01T03:28:07;0.60;;;0.53;;
545;SDS011;259;53.304;9.816;2023-04-01T03:30:33;0.60;;;0.60;;
545;SDS011;259;53.304;9.816;2023-04-01T03:32:59;0.80;;;0.70;;
545;SDS011;259;53.304;9.816;2023-04-01T03:35:26;0.77;;;0.60;;
545;SDS011;259;53.304;9.816;2023-04-01T03:37:52;1.07;;;0.70;;
545;SDS011;259;53.304;9.816;2023-04-01T03:40:18;1.80;;;0.60;;
545;SDS011;259;53.304;9.816;2023-04-01T03:42:44;0.67;;;0.60;;
545;SDS011;259;53.304;9.816;2023-04-01T03:45:10;1.00;;;0.80;;
545;SDS011;259;53.304;9.816;2023-04-01T03:47:37;0.60;;;0.60;;
545;SDS011;259;53.304;9.816;2023-04-01T03:50:05;0.83;;;0.83;;
545;SDS011;259;53.304;9.816;2023-04-01T03:52:32;0.70;;;0.67;;
545;SDS011;259;53.304;9.816;2023-04-01T03:54:58;0.70;;;0.60;;
545;SDS011;259;53.304;9.816;2023-04-01T03:57:26;0.60;;;0.50;;
545;SDS011;259;53.304;9.816;2023-04-01T03:59:52;0.67;;;0.67;;
545;SDS011;259;53.304;9.816;2023-04-01T04:02:18;0.87;;;0.77;;
545;SDS011;259;53.304;9.816;2023-04-01T04:04:44;0.70;;;0.70;;
545;SDS011;259;53.304;9.816;2023-04-01T04:07:12;0.80;;;0.50;;
545;SDS011;259;53.304;9.816;2023-04-01T04:09:38;1.33;;;0.50;;
545;SDS011;259;53.304;9.816;2023-04-01T04:12:04;0.63;;;0.60;;
545;SDS011;259;53.304;9.816;2023-04-01T04:14:31;1.20;;;0.70;;
545;SDS011;259;53.304;9.816;2023-04-01T04:16:57;0.87;;;0.87;;
545;SDS011;259;53.304;9.816;2023-04-01T04:19:23;0.70;;;0.70;;
545;SDS011;259;53.304;9.816;2023-04-01T04:21:48;0.70;;;0.60;;
545;SDS011;259;53.304;9.816;2023-04-01T04:24:14;0.60;;;0.50;;
545;SDS011;259;53.304;9.816;2023-04-01T04:26:40;0.70;;;0.60;;
545;SDS011;259;53.304;9.816;2023-04-01T04:29:05;0.60;;;0.60;;
545;SDS011;259;53.304;9.816;2023-04-01T04:31:31;0.60;;;0.60;;
545;SDS011;259;53.304;9.816;2023-04-01T04:33:58;0.70;;;0.70;;
545;SDS011;259;53.304;9.816;2023-04-01T04:36:26;0.70;;;0.50;;
545;SDS011;259;53.304;9.816;2023-04-01T04:38:51;0.60;;;0.60;;
545;SDS011;259;53.304;9.816;2023-04-01T04:41:18;0.80;;;0.73;;
545;SDS011;259;53.304;9.816;2023-04-01T04:43:51;0.60;;;0.50;;
545;SDS011;259;53.304;9.816;2023-04-01T04:46:20;0.80;;;0.60;;
545;SDS011;259;53.304;9.816;2023-04-01T04:48:46;0.70;;;0.60;;
545;SDS011;259;53.304;9.816;2023-04-01T04:51:13;0.63;;;0.60;;
545;SDS011;259;53.304;9.816;2023-04-01T04:53:43;0.60;;;0.60;;
545;SDS011;259;53.304;9.816;2023-04-01T04:56:10;1.00;;;0.60;;
545;SDS011;259;53.304;9.816;2023-04-01T04:58:36;0.70;;;0.70;;
545;SDS011;259;53.304;9.816;2023-04-01T05:01:09;0.60;;;0.60;;
545;SDS011;259;53.304;9.816;2023-04-01T05:03:38;1.43;;;0.67;;
545;SDS011;259;53.304;9.816;2023-04-01T05:06:04;1.83;;;0.50;;
545;SDS011;259;53.304;9.816;2023-04-01T05:08:31;0.80;;;0.70;;
545;SDS011;259;53.304;9.816;2023-04-01T05:10:58;0.60;;;0.50;;
545;SDS011;259;53.304;9.816;2023-04-01T05:13:24;0.67;;;0.60;;
545;SDS011;259;53.304;9.816;2023-04-01T05:15:50;0.70;;;0.70;;
545;SDS011;259;53.304;9.816;2023-04-01T05:18:15;0.60;;;0.50;;
545;SDS011;259;53.304;9.816;2023-04-01T05:20:48;1.23;;;0.57;;
545;SDS011;259;53.304;9.816;2023-04-01T05:23:17;0.80;;;0.57;;
545;SDS011;259;53.304;9.816;2023-04-01T05:25:46;0.60;;;0.50;;
545;SDS011;259;53.304;9.816;2023-04-01T05:28:14;1.10;;;0.70;;
545;SDS011;259;53.304;9.816;2023-04-01T05:30:40;0.70;;;0.68;;
545;SDS011;259;53.304;9.816;2023-04-01T05:33:07;0.60;;;0.40;;
545;SDS011;259;53.304;9.816;2023-04-01T05:35:33;0.60;;;0.60;;
545;SDS011;259;53.304;9.816;2023-04-01T05:37:59;0.60;;;0.60;;
545;SDS011;259;53.304;9.816;2023-04-01T05:40:25;0.70;;;0.50;;
545;SDS011;259;53.304;9.816;2023-04-01T05:42:50;0.60;;;0.60;;
545;SDS011;259;53.304;9.816;2023-04-01T05:45:16;1.17;;;0.57;;
545;SDS011;259;53.304;9.816;2023-04-01T05:47:42;0.60;;;0.50;;
545;SDS011;259;53.304;9.816;2023-04-01T05:50:08;0.60;;;0.60;;
545;SDS011;259;53.304;9.816;2023-04-01T05:52:35;0.60;;;0.50;;
545;SDS011;259;53.304;9.816;2023-04-01T05:55:02;1.10;;;0.50;;
545;SDS011;259;53.304;9.816;2023-04-01T05:57:28;0.70;;;0.50;;
545;SDS011;259;53.304;9.816;2023-04-01T05:59:54;0.60;;;0.40;;
545;SDS011;259;53.304;9.816;2023-04-01T06:02:20;0.70;;;0.60;;
545;SDS011;259;53.304;9.816;2023-04-01T06:04:46;0.60;;;0.50;;
545;SDS011;259;53.304;9.816;2023-04-01T06:07:12;0.50;;;0.40;;
545;SDS011;259;53.304;9.816;2023-04-01T06:09:40;0.97;;;0.50;;
545;SDS011;259;53.304;9.816;2023-04-01T06:15:34;0.60;;;0.50;;
545;SDS011;259;53.304;9.816;2023-04-01T06:21:07;0.60;;;0.50;;
545;SDS011;259;53.304;9.816;2023-04-01T06:24:05;0.60;;;0.50;;
545;SDS011;259;53.304;9.816;2023-04-01T06:27:36;0.50;;;0.40;;
545;SDS011;259;53.304;9.816;2023-04-01T06:39:18;0.60;;;0.60;;
545;SDS011;259;53.304;9.816;2023-04-01T06:47:54;0.70;;;0.40;;
545;SDS011;259;53.304;9.816;2023-04-01T06:50:44;0.60;;;0.50;;
545;SDS011;259;53.304;9.816;2023-04-01T06:53:45;0.60;;;0.53;;
545;SDS011;259;53.304;9.816;2023-04-01T06:56:28;0.60;;;0.50;;
545;SDS011;259;53.304;9.816;2023-04-01T06:58:58;0.50;;;0.40;;
545;SDS011;259;53.304;9.816;2023-04-01T07:01:35;0.70;;;0.63;;
545;SDS011;259;53.304;9.816;2023-04-01T07:04:09;0.70;;;0.50;;
545;SDS011;259;53.304;9.816;2023-04-01T07:07:29;0.60;;;0.50;;
545;SDS011;259;53.304;9.816;2023-04-01T07:09:53;0.60;;;0.40;;
545;SDS011;259;53.304;9.816;2023-04-01T07:17:47;0.60;;;0.60;;
545;SDS011;259;53.304;9.816;2023-04-01T07:20:22;0.90;;;0.70;;
545;SDS011;259;53.304;9.816;2023-04-01T07:22:58;0.50;;;0.33;;
545;SDS011;259;53.304;9.816;2023-04-01T07:25:29;0.50;;;0.50;;
545;SDS011;259;53.304;9.816;2023-04-01T07:28:01;0.80;;;0.50;;
545;SDS011;259;53.304;9.816;2023-04-01T07:31:07;0.80;;;0.50;;
545;SDS011;259;53.304;9.816;2023-04-01T07:36:56;0.50;;;0.40;;
545;SDS011;259;53.304;9.816;2023-04-01T07:45:43;0.60;;;0.50;;
545;SDS011;259;53.304;9.816;2023-04-01T07:48:33;0.80;;;0.63;;
545;SDS011;259;53.304;9.816;2023-04-01T07:57:30;0.77;;;0.60;;
545;SDS011;259;53.304;9.816;2023-04-01T08:06:06;0.63;;;0.60;;
545;SDS011;259;53.304;9.816;2023-04-01T08:17:32;0.60;;;0.50;;
545;SDS011;259;53.304;9.816;2023-04-01T08:25:53;0.70;;;0.50;;
545;SDS011;259;53.304;9.816;2023-04-01T08:31:12;0.60;;;0.50;;
545;SDS011;259;53.304;9.816;2023-04-01T08:34:08;0.50;;;0.40;;
545;SDS011;259;53.304;9.816;2023-04-01T08:36:46;0.80;;;0.57;;
545;SDS011;259;53.304;9.816;2023-04-01T08:39:29;0.63;;;0.50;;
545;SDS011;259;53.304;9.816;2023-04-01T08:47:49;0.60;;;0.50;;
545;SDS011;259;53.304;9.816;2023-04-01T09:02:26;0.50;;;0.40;;
545;SDS011;259;53.304;9.816;2023-04-01T09:11:04;0.70;;;0.70;;
545;SDS011;259;53.304;9.816;2023-04-01T09:34:43;1.00;;;0.60;;
545;SDS011;259;53.304;9.816;2023-04-01T09:40:18;0.50;;;0.40;;
545;SDS011;259;53.304;9.816;2023-04-01T09:45:56;1.10;;;0.50;;
545;SDS011;259;53.304;9.816;2023-04-01T09:51:51;0.50;;;0.40;;
545;SDS011;259;53.304;9.816;2023-04-01T10:04:00;0.60;;;0.40;;
545;SDS011;259;53.304;9.816;2023-04-01T10:13:17;0.50;;;0.40;;
545;SDS011;259;53.304;9.816;2023-04-01T10:19:03;0.60;;;0.50;;
545;SDS011;259;53.304;9.816;2023-04-01T10:31:06;0.60;;;0.40;;
545;SDS011;259;53.304;9.816;2023-04-01T10:34:37;0.60;;;0.40;;
545;SDS011;259;53.304;9.816;2023-04-01T10:37:33;0.60;;;0.40;;
545;SDS011;259;53.304;9.816;2023-04-01T10:40:21;0.67;;;0.53;;
545;SDS011;259;53.304;9.816;2023-04-01T10:53:09;1.20;;;0.50;;
545;SDS011;259;53.304;9.816;2023-04-01T11:00:57;0.70;;;0.40;;
545;SDS011;259;53.304;9.816;2023-04-01T11:04:02;0.60;;;0.53;;
545;SDS011;259;53.304;9.816;2023-04-01T11:13:33;0.63;;;0.63;;
545;SDS011;259;53.304;9.816;2023-04-01T11:25:07;0.90;;;0.60;;
545;SDS011;259;53.304;9.816;2023-04-01T11:28:03;0.60;;;0.40;;
545;SDS011;259;53.304;9.816;2023-04-01T11:33:57;0.73;;;0.50;;
545;SDS011;259;53.304;9.816;2023-04-01T11:37:05;0.60;;;0.50;;
545;SDS011;259;53.304;9.816;2023-04-01T11:42:55;1.03;;;0.50;;
545;SDS011;259;53.304;9.816;2023-04-01T11:49:02;0.50;;;0.37;;
545;SDS011;259;53.304;9.816;2023-04-01T11:57:40;0.97;;;0.60;;
545;SDS011;259;53.304;9.816;2023-04-01T12:00:33;0.50;;;0.40;;
545;SDS011;259;53.304;9.816;2023-04-01T12:22:12;1.07;;;0.60;;
545;SDS011;259;53.304;9.816;2023-04-01T12:28:22;1.00;;;0.57;;
545;SDS011;259;53.304;9.816;2023-04-01T12:36:40;0.50;;;0.38;;
545;SDS011;259;53.304;9.816;2023-04-01T12:42:44;0.70;;;0.40;;
545;SDS011;259;53.304;9.816;2023-04-01T12:51:23;0.70;;;0.40;;
545;SDS011;259;53.304;9.816;2023-04-01T13:03:17;0.60;;;0.50;;
545;SDS011;259;53.304;9.816;2023-04-01T13:09:11;0.60;;;0.50;;
545;SDS011;259;53.304;9.816;2023-04-01T13:12:09;1.03;;;0.40;;
545;SDS011;259;53.304;9.816;2023-04-01T13:17:58;0.60;;;0.50;;
545;SDS011;259;53.304;9.816;2023-04-01T13:21:04;0.60;;;0.50;;
545;SDS011;259;53.304;9.816;2023-04-01T13:27:17;2.47;;;1.10;;
545;SDS011;259;53.304;9.816;2023-04-01T13:41:22;4.03;;;1.57;;
545;SDS011;259;53.304;9.816;2023-04-01T13:43:59;2.63;;;1.90;;
545;SDS011;259;53.304;9.816;2023-04-01T13:46:39;4.80;;;1.70;;
545;SDS011;259;53.304;9.816;2023-04-01T13:49:37;2.17;;;1.50;;
545;SDS011;259;53.304;9.816;2023-04-01T13:55:16;3.00;;;1.80;;
545;SDS011;259;53.304;9.816;2023-04-01T13:58:34;3.10;;;1.80;;
545;SDS011;259;53.304;9.816;2023-04-01T14:10:19;4.53;;;1.20;;
545;SDS011;259;53.304;9.816;2023-04-01T14:21:35;2.90;;;1.70;;
545;SDS011;259;53.304;9.816;2023-04-01T14:24:14;4.30;;;1.50;;
545;SDS011;259;53.304;9.816;2023-04-01T14:44:52;1.67;;;1.23;;
545;SDS011;259;53.304;9.816;2023-04-01T14:47:39;1.93;;;1.17;;
545;SDS011;259;53.304;9.816;2023-04-01T14:50:23;1.50;;;1.40;;
545;SDS011;259;53.304;9.816;2023-04-01T14:55:34;1.43;;;1.00;;
545;SDS011;259;53.304;9.816;2023-04-01T14:58:17;1.50;;;1.20;;
545;SDS011;259;53.304;9.816;2023-04-01T15:03:36;1.35;;;1.25;;
545;SDS011;259;53.304;9.816;2023-04-01T15:09:32;1.63;;;1.20;;
545;SDS011;259;53.304;9.816;2023-04-01T15:18:27;1.30;;;1.20;;
545;SDS011;259;53.304;9.816;2023-04-01T15:21:20;2.10;;;1.23;;
545;SDS011;259;53.304;9.816;2023-04-01T15:58:51;1.60;;;1.50;;
545;SDS011;259;53.304;9.816;2023-04-01T16:01:32;1.87;;;1.33;;
545;SDS011;259;53.304;9.816;2023-04-01T16:09:38;1.25;;;1.15;;
545;SDS011;259;53.304;9.816;2023-04-01T16:12:20;1.70;;;1.38;;
545;SDS011;259;53.304;9.816;2023-04-01T16:20:39;1.30;;;1.30;;
545;SDS011;259;53.304;9.816;2023-04-01T16:23:13;1.50;;;1.40;;
545;SDS011;259;53.304;9.816;2023-04-01T16:34:38;1.50;;;1.40;;
545;SDS011;259;53.304;9.816;2023-04-01T16:37:20;1.20;;;1.10;;
545;SDS011;259;53.304;9.816;2023-04-01T16:42:51;1.30;;;1.20;;
545;SDS011;259;53.304;9.816;2023-04-01T16:45:24;1.53;;;1.17;;
545;SDS011;259;53.304;9.816;2023-04-01T16:48:22;1.47;;;1.37;;
545;SDS011;259;53.304;9.816;2023-04-01T16:51:17;1.40;;;1.23;;
545;SDS011;259;53.304;9.816;2023-04-01T16:53:48;1.70;;;1.60;;
545;SDS011;259;53.304;9.816;2023-04-01T16:56:28;1.35;;;1.25;;
545;SDS011;259;53.304;9.816;2023-04-01T17:16:39;1.53;;;1.43;;
545;SDS011;259;53.304;9.816;2023-04-01T17:19:22;1.20;;;1.20;;
545;SDS011;259;53.304;9.816;2023-04-01T17:22:11;1.40;;;1.30;;
545;SDS011;259;53.304;9.816;2023-04-01T17:31:10;1.90;;;1.80;;
545;SDS011;259;53.304;9.816;2023-04-01T17:45:56;1.30;;;1.20;;
545;SDS011;259;53.304;9.816;2023-04-01T17:48:39;2.90;;;1.70;;
545;SDS011;259;53.304;9.816;2023-04-01T17:51:23;1.43;;;1.33;;
545;SDS011;259;53.304;9.816;2023-04-01T17:57:26;4.27;;;2.00;;
545;SDS011;259;53.304;9.816;2023-04-01T18:00:26;2.90;;;1.80;;
545;SDS011;259;53.304;9.816;2023-04-01T18:03:09;2.80;;;1.83;;
545;SDS011;259;53.304;9.816;2023-04-01T18:11:57;2.40;;;2.22;;
545;SDS011;259;53.304;9.816;2023-04-01T18:20:33;2.07;;;1.97;;
545;SDS011;259;53.304;9.816;2023-04-01T18:25:46;3.20;;;2.77;;
545;SDS011;259;53.304;9.816;2023-04-01T18:28:49;2.43;;;2.10;;
545;SDS011;259;53.304;9.816;2023-04-01T18:31:21;2.33;;;2.13;;
545;SDS011;259;53.304;9.816;2023-04-01T18:36:55;2.43;;;1.90;;
545;SDS011;259;53.304;9.816;2023-04-01T18:39:41;3.70;;;2.30;;
545;SDS011;259;53.304;9.816;2023-04-01T18:51:00;2.27;;;2.07;;
545;SDS011;259;53.304;9.816;2023-04-01T18:54:02;2.20;;;2.10;;
545;SDS011;259;53.304;9.816;2023-04-01T18:56:32;2.35;;;2.20;;
545;SDS011;259;53.304;9.816;2023-04-01T19:05:13;2.10;;;2.00;;
545;SDS011;259;53.304;9.816;2023-04-01T19:07:50;1.90;;;1.80;;
545;SDS011;259;53.304;9.816;2023-04-01T19:10:31;2.43;;;2.17;;
545;SDS011;259;53.304;9.816;2023-04-01T19:16:21;2.27;;;2.07;;
545;SDS011;259;53.304;9.816;2023-04-01T19:24:40;2.30;;;2.10;;
545;SDS011;259;53.304;9.816;2023-04-01T19:27:41;2.17;;;2.07;;
545;SDS011;259;53.304;9.816;2023-04-01T19:30:27;2.50;;;2.30;;
545;SDS011;259;53.304;9.816;2023-04-01T19:33:17;1.77;;;1.67;;
545;SDS011;259;53.304;9.816;2023-04-01T19:36:56;2.40;;;2.20;;
545;SDS011;259;53.304;9.816;2023-04-01T19:50:27;1.75;;;1.63;;
545;SDS011;259;53.304;9.816;2023-04-01T19:53:52;2.35;;;2.22;;
545;SDS011;259;53.304;9.816;2023-04-01T19:56:30;2.23;;;2.13;;
545;SDS011;259;53.304;9.816;2023-04-01T20:05:38;2.17;;;2.05;;
545;SDS011;259;53.304;9.816;2023-04-01T20:08:21;1.90;;;1.80;;
545;SDS011;259;53.304;9.816;2023-04-01T20:11:37;1.90;;;1.80;;
545;SDS011;259;53.304;9.816;2023-04-01T20:16:59;2.57;;;2.37;;
545;SDS011;259;53.304;9.816;2023-04-01T20:19:43;3.63;;;2.53;;
545;SDS011;259;53.304;9.816;2023-04-01T20:25:13;2.30;;;2.10;;
545;SDS011;259;53.304;9.816;2023-04-01T20:28:05;2.67;;;1.83;;
545;SDS011;259;53.304;9.816;2023-04-01T20:30:57;2.33;;;2.13;;
545;SDS011;259;53.304;9.816;2023-04-01T20:43:07;2.70;;;2.10;;
545;SDS011;259;53.304;9.816;2023-04-01T20:46:11;3.85;;;2.97;;
545;SDS011;259;53.304;9.816;2023-04-01T20:51:29;3.43;;;3.13;;
545;SDS011;259;53.304;9.816;2023-04-01T20:57:13;2.83;;;2.63;;
545;SDS011;259;53.304;9.816;2023-04-01T21:00:28;2.87;;;2.60;;
545;SDS011;259;53.304;9.816;2023-04-01T21:12:05;3.30;;;3.00;;
545;SDS011;259;53.304;9.816;2023-04-01T21:15:02;2.60;;;2.50;;
545;SDS011;259;53.304;9.816;2023-04-01T21:18:04;2.95;;;2.75;;
545;SDS011;259;53.304;9.816;2023-04-01T21:41:38;2.50;;;2.30;;
545;SDS011;259;53.304;9.816;2023-04-01T21:50:39;2.33;;;2.20;;
545;SDS011;259;53.304;9.816;2023-04-01T22:20:25;2.10;;;1.90;;
545;SDS011;259;53.304;9.816;2023-04-01T22:23:07;2.10;;;2.00;;
545;SDS011;259;53.304;9.816;2023-04-01T22:25:47;2.50;;;2.30;;
545;SDS011;259;53.304;9.816;2023-04-01T22:28:24;2.23;;;2.13;;
545;SDS011;259;53.304;9.816;2023-04-01T22:31:02;3.03;;;2.60;;
545;SDS011;259;53.304;9.816;2023-04-01T22:33:32;2.60;;;2.40;;
545;SDS011;259;53.304;9.816;2023-04-01T22:45:15;2.00;;;1.90;;
545;SDS011;259;53.304;9.816;2023-04-01T22:55:43;2.07;;;1.90;;
545;SDS011;259;53.304;9.816;2023-04-01T22:58:14;2.00;;;1.90;;
545;SDS011;259;53.304;9.816;2023-04-01T23:00:50;2.30;;;2.20;;
545;SDS011;259;53.304;9.816;2023-04-01T23:03:27;2.17;;;2.08;;
545;SDS011;259;53.304;9.816;2023-04-01T23:05:57;2.37;;;2.20;;
545;SDS011;259;53.304;9.816;2023-04-01T23:11:32;2.07;;;1.87;;
545;SDS011;259;53.304;9.816;2023-04-01T23:19:54;2.00;;;1.90;;
545;SDS011;259;53.304;9.816;2023-04-01T23:28:59;1.80;;;1.70;;
545;SDS011;259;53.304;9.816;2023-04-01T23:31:27;2.00;;;1.90;;
545;SDS011;259;53.304;9.816;2023-04-01T23:34:02;2.77;;;2.10;;
545;SDS011;259;53.304;9.816;2023-04-01T23:36:47;2.10;;;2.00;;
545;SDS011;259;53.304;9.816;2023-04-01T23:41:59;1.80;;;1.70;;
545;SDS011;259;53.304;9.816;2023-04-01T23:44:30;2.77;;;1.93;;
545;SDS011;259;53.304;9.816;2023-04-01T23:46:58;2.17;;;1.80;;
545;SDS011;259;53.304;9.816;2023-04-01T23:49:34;2.20;;;2.00;;
545;SDS011;259;53.304;9.816;2023-04-01T23:52:17;2.17;;;1.97;;
545;SDS011;259;53.304;9.816;2023-04-01T23:55:08;1.87;;;1.70;;
545;SDS011;259;53.304;9.816;2023-04-01T23:57:40;1.83;;;1.73;;
